Downloads

-JavaCPC -demo -emu -j-cpc_ani -tools 0-9 A B C D E F G H I J K L M N O P Q R S T U V W X Y Z ZZZ_UNK roms
FILEDATESIZEDLs
KTris by Richard Wilson (PD).zip 2017-04-21 16:14 2 Kb27
Kaiser (G) (19xx).zip 2017-04-21 16:13 91 Kb28
Kane & Nebulus & Renaud - Marche a l'Ombre.zip 2017-04-21 16:13 95 Kb11
Kane (UK) (1986).zip 2017-04-21 16:13 28 Kb20
Kane (UK) (1986) [a1].zip 2017-04-21 16:13 80 Kb28
Kane (UK) (1986) [a2].zip 2017-04-21 16:13 38 Kb21
Kane (UK) (1986) [t1].zip 2017-04-21 16:13 38 Kb25
Karateka (F) (1986).zip 2017-04-21 16:13 50 Kb29
Karateka (F) (1986) [f1].zip 2017-04-21 16:13 50 Kb27
Karateka (F) (1986) [t1].zip 2017-04-21 16:13 50 Kb22
Karateka (F) (1990).zip 2017-04-21 16:13 49 Kb26
Karateka (F) (1990) [t1].zip 2017-04-21 16:13 49 Kb27
Karateka (F).dsk 2017-04-21 16:13 192 Kb33
Karl's Treasure Hunt (UK) (1984).zip 2017-04-21 16:13 11 Kb28
Karl's Treasure Hunt (UK) (1984) [a1].zip 2017-04-21 16:13 84 Kb26
Karl's Treasure Hunt (UK) (1984) [a2].zip 2017-04-21 16:13 11 Kb27
Karnov (E) - Disk 1A.dsk 2017-04-21 16:13 214 Kb26
Karnov (E) - Disk 1B.dsk 2017-04-21 16:13 214 Kb29
Karnov (UK) (1988) (Disk 1 of 2).zip 2017-04-21 16:13 73 Kb27
Karnov (UK) (1988) (Disk 1 of 2) [a1].zip 2017-04-21 16:13 56 Kb21
Karnov (UK) (1988) (Disk 1 of 2) [t1].zip 2017-04-21 16:13 159 Kb28
Karnov (UK) (1988) (Disk 1 of 2) [t2].zip 2017-04-21 16:13 73 Kb24
Karnov (UK) (1988) (Disk 2 of 2).zip 2017-04-21 16:13 62 Kb26
Karnov (UK) (1988) (Disk 2 of 2) [a1].zip 2017-04-21 16:13 105 Kb29
Karnov (UK) (1988) (Disk 2 of 2) [t2].zip 2017-04-21 16:13 62 Kb31
Kat Trap (E).dsk 2017-04-21 16:13 91 Kb26
Kat Trap (UK) (1987).zip 2017-04-21 16:13 34 Kb27
Keep Yourself Alive (F) (1987).zip 2017-04-21 16:13 19 Kb26
Kenny Dalglish Soccer Manager (E).cdt 2017-04-21 16:13 57 Kb26
Kenny Dalglish Soccer Manager (UK) (1989).zip 2017-04-21 16:13 25 Kb32
Kenny Dalglish Soccer Match (UK) (1990).zip 2017-04-21 16:13 29 Kb26
Kentilla (UK) (1985).zip 2017-04-21 16:13 23 Kb30
Kentilla (UK) (1985) [a1].zip 2017-04-21 16:13 30 Kb26
Kentucky Racing (E).cdt 2017-04-21 16:13 45 Kb31
Kentucky Racing (UK) (1990).zip 2017-04-21 16:13 24 Kb22
Kentucky Racing (UK) (1990) [f1].zip 2017-04-21 16:13 24 Kb26
Kessia (F) (19xx).zip 2017-04-21 16:13 72 Kb22
Kettle (E).dsk 2017-04-21 16:13 193 Kb26
Kettle (UK) (1986).zip 2017-04-21 16:13 21 Kb31
Kevin Thacker's CPC Guide (UK) (19xx) (PD) (Disk 1 of 2).zip 2017-04-21 16:13 47 Kb24
Kevin Thacker's CPC Guide (UK) (19xx) (PD) (Disk 2 of 2).zip 2017-04-21 16:13 41 Kb29
Key Factor, The (UK) (1985).zip 2017-04-21 16:13 13 Kb33
Kick Off (UK,F,G,S,I) (1990).zip 2017-04-21 16:13 27 Kb27
Kick Off (UK,F,G,S,I) (1990) [a1].zip 2017-04-21 16:13 131 Kb27
Kick Off (UK,F,G,S,I) (1990) [a2].zip 2017-04-21 16:13 31 Kb24
Kick Off 2 (E) - Disk 1A.dsk 2017-04-21 16:13 178 Kb30
Kick Off 2 (E) - Disk 1B.dsk 2017-04-21 16:13 178 Kb31
Kick Off 2 (F) (1990).zip 2017-04-21 16:13 68 Kb28
Kick Off 2 (F) (1990) [a1].zip 2017-04-21 16:13 68 Kb30
Kikstart II (UK) (1988).zip 2017-04-21 16:13 24 Kb27
Kikstart II (UK) (1988) [a1].zip 2017-04-21 16:13 23 Kb32
Killapede (UK) (1986).zip 2017-04-21 16:13 26 Kb22
Killapede (UK) (1986) [a1].zip 2017-04-21 16:13 26 Kb29
Killapede (UK) (1986) [a2].zip 2017-04-21 16:13 32 Kb31
Killapede (UK) (1986) [a3].zip 2017-04-21 16:13 30 Kb29
Killed Until Dead (UK) (1987) (Disk 1 of 2).zip 2017-04-21 16:13 50 Kb25
Killed Until Dead (UK) (1987) (Disk 2 of 2).zip 2017-04-21 16:13 62 Kb24
Killer Ball (UK) (1991).zip 2017-04-21 16:14 103 Kb25
Killer Ball (UK) (1991) [a1].zip 2017-04-21 16:13 103 Kb30
Killer Ball (UK) (1991) [a2].zip 2017-04-21 16:13 76 Kb27
Killer Ball (UK) (1991) [a3].zip 2017-04-21 16:13 96 Kb25
Killer Cobra (E).cdt 2017-04-21 16:14 49 Kb27
Killer Cobra (UK) (1987).zip 2017-04-21 16:14 27 Kb23
Killer Cobra (UK) (1987) [a1].zip 2017-04-21 16:14 27 Kb29
Killer Cobra (UK) (1987) [a2].zip 2017-04-21 16:14 31 Kb27
Killer Gorilla & Knight Lore & Laserwarp & Molecule Man & Zaxx (F).zip 2017-04-21 16:14 82 Kb13
Killer Gorilla (UK) (1984).zip 2017-04-21 16:14 19 Kb27
Killer Gorilla (UK) (1984) [a1].zip 2017-04-21 16:14 19 Kb29
Killer Gorilla (UK) (1984) [a2].zip 2017-04-21 16:14 15 Kb26
Killer Gorilla (UK) (1984) [a3].zip 2017-04-21 16:14 18 Kb25
Killer Gorilla (UK) (1984) [b1].zip 2017-04-21 16:14 19 Kb21
Killer Gorilla (UK) (1984) [b2].zip 2017-04-21 16:14 19 Kb26
Killer Ring (UK) (1987).zip 2017-04-21 16:14 16 Kb27
Killer Ring (UK) (1987) [a1].zip 2017-04-21 16:14 16 Kb27
Kiloroid (UK) (19xx).zip 2017-04-21 16:14 2 Kb25
Kim (F) (1986).zip 2017-04-21 16:14 9 Kb23
Kinetic (UK) (1987).zip 2017-04-21 16:14 35 Kb29
Kinetic (UK) (1987) [a1].zip 2017-04-21 16:14 36 Kb27
Kinetic (UK) (1987) [a2].zip 2017-04-21 16:14 35 Kb30
Kinetik (E).dsk 2017-04-21 16:14 195 Kb34
Kingdom of Hamil (UK) (1987).zip 2017-04-21 16:14 57 Kb28
Kingdoms (UK) (1985).zip 2017-04-21 16:14 5 Kb29
Kit de Telechargement - Telecharge Amstrad CPC (F).dsk 2017-04-21 16:14 217 Kb30
Kit de Telechargement pour Amstrad CPC (F).dsk 2017-04-21 16:14 191 Kb47
Klax & Meynaumede (F) & Nervous Break Down (F) & Skweek.zip 2017-04-21 16:14 97 Kb13
Klax (E).dsk 2017-04-21 16:14 172 Kb25
Klax (UK) (1990) (CPM).zip 2017-04-21 16:14 44 Kb22
Klax (UK) (1990) (CPM) [a1].zip 2017-04-21 16:14 44 Kb30
Klax (UK) (1990) (CPM Version).zip 2017-04-21 16:14 43 Kb27
Klax (UK) (1990) (CPM Version) [a1].zip 2017-04-21 16:14 43 Kb25
Klax (UK) (1990) (Cart).zip 2017-04-21 16:14 41 Kb28
Klax (UK) (1990).zip 2017-04-21 16:14 42 Kb26
Klax (UK) (1990) [a1].zip 2017-04-21 16:14 42 Kb25
Klax (UK) (1990) [h1].zip 2017-04-21 16:14 52 Kb25
Klax (UK) (1990) [h2].zip 2017-04-21 16:14 54 Kb30
Knaves and thou Prisoners (UK) (19xx).zip 2017-04-21 16:14 8 Kb26
Knight Force (F) (1989) (Disk 1 of 2).zip 2017-04-21 16:14 54 Kb31
Knight Force (F) (1989) (Disk 1 of 2) [t1].zip 2017-04-21 16:14 55 Kb25
Knight Force (F) (1989) (Disk 1 of 2) [t2] & Power Drift.zip 2017-04-21 16:14 108 Kb11
Knight Force (F) (1989) (Disk 1 of 2) [t2].zip 2017-04-21 16:14 75 Kb29
Knight Force (F) (1989) (Disk 2 of 2).zip 2017-04-21 16:14 76 Kb25
Knight Force (F) - Disk 1A.dsk 2017-04-21 16:14 456 Kb29
Knight Force (F) - Disk 1B.dsk 2017-04-21 16:14 627 Kb35
Knight Games (E) - Side A.cdt 2017-04-21 16:14 166 Kb33
Knight Games (E) - Side B.cdt 2017-04-21 16:14 142 Kb26
Knight Games (UK) (1986) (Disk 1 of 2).zip 2017-04-21 16:14 88 Kb30
Knight Games (UK) (1986) (Disk 1 of 2) [a1].zip 2017-04-21 16:14 83 Kb22
Knight Games (UK) (1986) (Disk 1 of 2) [a2].zip 2017-04-21 16:14 83 Kb27
Knight Games (UK) (1986) (Disk 1 of 2) [a3].zip 2017-04-21 16:14 103 Kb25
Knight Games (UK) (1986) (Disk 2 of 2).zip 2017-04-21 16:14 94 Kb27
Knight Games (UK) (1986) (Disk 2 of 2) [a1].zip 2017-04-21 16:14 76 Kb26
Knight Games (UK) (1986) (Disk 2 of 2) [a2].zip 2017-04-21 16:14 79 Kb24
Knight Games (UK) (1986) (Disk 2 of 2) [a3].zip 2017-04-21 16:14 109 Kb27
Knight Games (UK) (1986) [f1][t1].zip 2017-04-21 16:14 179 Kb27
Knight Lore (E).cdt 2017-04-21 16:14 42 Kb26
Knight Lore (UK) (1984).zip 2017-04-21 16:14 25 Kb24
Knight Lore (UK) (1984) [a1].zip 2017-04-21 16:14 25 Kb26
Knight Lore (UK) (1984) [a2].zip 2017-04-21 16:14 25 Kb33
Knight Moves (F) (19xx) (Disk 1 of 2).zip 2017-04-21 16:14 60 Kb25
Knight Moves (F) (19xx) (Disk 2 of 2).zip 2017-04-21 16:14 83 Kb25
Knight Orc (E) - Disk 1A.dsk 2017-04-21 16:14 194 Kb30
Knight Orc (E) - Disk 1B.dsk 2017-04-21 16:14 199 Kb31
Knight Orc (UK) (1987) (Disk 1 of 2).zip 2017-04-21 16:14 119 Kb25
Knight Orc (UK) (1987) (Disk 2 of 2).zip 2017-04-21 16:14 110 Kb27
Knight Rider (E).cdt 2017-04-21 16:14 45 Kb32
Knight Rider (UK) (1986).zip 2017-04-21 16:14 20 Kb23
Knight Rider (UK) (1986) [h1].zip 2017-04-21 16:14 32 Kb31
Knight Rider (UK) (1986) [h2].zip 2017-04-21 16:14 21 Kb23
Knight Tyme (E).cdt 2017-04-21 16:14 57 Kb27
Knight Tyme (UK) (1986).zip 2017-04-21 16:14 31 Kb26
Knight Tyme (UK) (1986) [a1].zip 2017-04-21 16:14 31 Kb26
Knight Tyme (UK) (1986) [t1].zip 2017-04-21 16:14 31 Kb21
Knightmare (E).dsk 2017-04-21 16:14 213 Kb35
Knightmare (UK) (1987).zip 2017-04-21 16:14 29 Kb27
Knightmare (UK) (1987) [a1].zip 2017-04-21 16:14 30 Kb24
Knightmare (UK) (1987) [a2].zip 2017-04-21 16:14 30 Kb30
Knightmare (UK) (1987) [t1].zip 2017-04-21 16:14 33 Kb25
Know (G).dsk 2017-04-21 16:14 192 Kb30
Kobayashi Naru (UK) (19xx).zip 2017-04-21 16:14 31 Kb27
Kobayashi Naru (UK) (1987).zip 2017-04-21 16:14 31 Kb23
Kobayashi Naru (UK) (1987) [a1].zip 2017-04-21 16:14 31 Kb25
Kobayashi Naru (UK) (1987) [a2].zip 2017-04-21 16:14 48 Kb32
Kokotoni Wilf (UK) (19xx).zip 2017-04-21 16:14 137 Kb34
Kokotoni Wilf (UK) (19xx) [a1].zip 2017-04-21 16:14 35 Kb30
Kokotoni Wilf (UK) (19xx) [f1][t1].zip 2017-04-21 16:14 37 Kb26
Konami's Golf (UK) (1986).zip 2017-04-21 16:14 24 Kb23
Konami's Golf (UK) (1986) [a1].zip 2017-04-21 16:14 24 Kb27
Konami's Golf (UK) (1986) [a2].zip 2017-04-21 16:14 26 Kb25
Konami Coin-op Hits (UK) (19xx) (Disk 1 of 2).zip 2017-04-21 16:14 50 Kb26
Konami Coin-op Hits (UK) (19xx) (Disk 1 of 2) [a1].zip 2017-04-21 16:14 50 Kb25
Konami Coin-op Hits (UK) (19xx) (Disk 2 of 2).zip 2017-04-21 16:14 65 Kb27
Konami Coin-op Hits (UK) (19xx) (Disk 2 of 2) [a1].zip 2017-04-21 16:14 65 Kb32
Konami Coin-op Hits (UK) (19xx) (Disk 2 of 2) [a2].zip 2017-04-21 16:14 65 Kb27
Kong Strikes Back (UK) (1985).zip 2017-04-21 16:14 21 Kb27
Kong Strikes Back (UK) (1985) [a1].zip 2017-04-21 16:14 21 Kb28
Kong Strikes Back (UK) (1985) [a2].zip 2017-04-21 16:14 23 Kb27
Koronis Rift (E).dsk 2017-04-21 16:14 186 Kb30
Koronis Rift (UK) (1987).zip 2017-04-21 16:14 57 Kb26
Krakout (E).cdt 2017-04-21 16:14 64 Kb28
Krakout (E).dsk 2017-04-21 16:14 171 Kb30
Krakout (UK) (1987).zip 2017-04-21 16:14 31 Kb25
Krakout (UK) (1987) [h1].zip 2017-04-21 16:14 34 Kb24
Kristal (F).dsk 2017-04-21 16:14 191 Kb33
Kristal (UK) (1985).zip 2017-04-21 16:14 16 Kb28
Kristax (UK) (1989).zip 2017-04-21 16:14 9 Kb29
Krypton Factor (UK) (1987) (Disk 1 of 2).zip 2017-04-21 16:14 52 Kb22
Krypton Factor (UK) (1987) (Disk 1 of 2) [a1].zip 2017-04-21 16:14 47 Kb30
Krypton Factor (UK) (1987) (Disk 2 of 2).zip 2017-04-21 16:14 5 Kb25
Krypton Factor (UK) (1987) (Disk 2 of 2) [a1].zip 2017-04-21 16:14 21 Kb25
Kung-Fu (UK) (1986).zip 2017-04-21 16:14 19 Kb24
Kung-Fu Master (E).dsk 2017-04-21 16:14 191 Kb25
Kung-Fu Master (UK) (1986).zip 2017-04-21 16:14 28 Kb26
Kung-Fu Master (UK) (1986) [h1].zip 2017-04-21 16:14 22 Kb24
Kwah (UK) (1987).zip 2017-04-21 16:14 36 Kb21
Kwik Snax (E).cdt 2017-04-21 16:14 65 Kb33
Kwik Snax (UK) (1990).zip 2017-04-21 16:14 22 Kb23
Kwik Snax (UK) (1990) [f1].zip 2017-04-21 16:14 33 Kb28
Kwik Snax (UK) (1990) [h1].zip 2017-04-21 16:14 41 Kb30
Kwik Snax (UK) (1990) [t1].zip 2017-04-21 16:14 33 Kb25
kobayashi Naru (E).cdt 2017-04-21 16:14 74 Kb27
180 Files
-JavaCPC -demo -emu -j-cpc_ani -tools 0-9 A B C D E F G H I J K L M N O P Q R S T U V W X Y Z ZZZ_UNK roms